• Join FlightAware (Why Join?)
  • Login
  • US Flag 
11:33PM EDT


 

Airport Tracker/Info


-or-


 

Live Flight TrackerFlight Track Log ✈ N173DS ✈ 28-Dec-2013 ✈ KPBI - KORL

Flight Track Log - Related Links

Times and Time Zones

All times are in EST time to prevent confusion due to time zone crossing. See the N173DS flight status page for this flight to view local times or setup timezone preferences in your user account.

Time Position Orientation Groundspeed Altitude Reporting Facility
EST Latitude Longitude Course Direction KTS MPH feet Rate Location/Type
01:55PM 26.7547 -79.9928 325° Northwest 257 296 5,700  Level Miami Center
01:56PM 26.8164 -80.0433 324° Northwest 306 352 8,100 2,100 Climbing Miami Center
01:57PM 26.8353 -80.1369 283° West 311 358 10,000 1,080 Climbing Miami Center
01:58PM 26.8478 -80.2281 279° West 361 415 10,300 1,200 Climbing Miami Center
01:59PM 27.1792 -80.4203 325° Northwest  Level Estimated
01:59PM 26.8744 -80.3383 285° West 370 426 12,400  Level Miami Center
02:00PM 26.9194 -80.4631 292° West 386 444 12,900 240 Climbing Miami Center
02:01PM 26.9603 -80.5783 292° West 392 451 12,900  Level Miami Center
02:02PM 27.0183 -80.6783 303° West 388 447 12,900  Level Miami Center
02:03PM 27.1089 -80.7208 337° Northwest 374 430 13,000  Climbing Miami Center
02:04PM 27.2017 -80.7658 337° Northwest 369 425 13,000  Level Miami Center
02:05PM 27.2986 -80.8114 337° Northwest 369 425 13,000 -240 Level Miami Center
02:06PM 27.4058 -80.8617 337° Northwest 374 430 12,600 -720 Descending Miami Center
02:07PM 27.4944 -80.9022 338° Northwest 369 425 11,600 -840 Descending Miami Center
02:08PM 27.5789 -80.9428 337° Northwest 349 402 11,000 -300 Descending Miami Center
02:09PM 27.6550 -80.9783 338° Northwest 330 380 11,000  Level Miami Center
02:10PM 27.7397 -81.0164 338° Northwest 330 380 11,000  Level Miami Center
02:12PM 27.9167 -81.1000 337° Northwest 328 377 11,000  Level Orlando TRACON
02:13PM 28.0167 -81.1333 344° North 337 388 11,000 -540 Level Orlando TRACON
02:14PM 28.1000 -81.1667 341° North 334 384 10,000 -1,140 Descending Orlando TRACON
02:15PM 28.1500 -81.2333 310° West 291 335 8,900 -1,440 Descending Orlando TRACON
02:16PM 28.1667 -81.3167 283° West 281 323 7,300 -1,440 Descending Orlando TRACON
02:17PM 28.1667 -81.4000 270° West 279 321 6,100 -1,080 Descending Orlando TRACON
02:18PM 28.1667 -81.4833 270° West 283 326 5,200 -1,080 Descending Orlando TRACON
02:19PM 28.2167 -81.5500 310° West 287 330 4,000 -600 Descending Orlando TRACON
02:20PM 28.3000 -81.5667 350° North 281 323 4,000 -420 Level Orlando TRACON
02:21PM 28.3667 -81.5833 348° North 260 299 3,200 -960 Descending Orlando TRACON
02:22PM 28.4333 -81.5833 360° North 240 276 2,100 -600 Descending Orlando TRACON
02:23PM 28.4667 -81.5167 60° Northeast 212 244 2,000 -60 Descending Orlando TRACON
02:24PM 28.5000 -81.4667 53° Northeast 194 223 2,000 -300 Level Orlando TRACON
02:25PM 28.5167 -81.4167 69° East 163 188 1,500 -600 Descending Orlando TRACON
02:26PM 28.5333 -81.3667 69° East 140 161 900 -660 Descending Orlando TRACON